Time;durP1;ratioP1;P1;durP2;ratioP2;P2;SDS_P1;SDS_P2;PMS_P1;PMS_P2;Temp;Humidity;BMP_temperature;BMP_pressure;BME280_temperature;BME280_humidity;BME280_pressure;Samples;Min_cycle;Max_cycle;Signal;HPM_P1;HPM_P2
2023/09/07 00:02:59;;;;;;;8.80;7.70;;;;;;;17.69;100.00;101664.03;5132761;28;20080;-73
2023/09/07 00:05:25;;;;;;;9.03;8.03;;;;;;;17.64;100.00;101663.91;5132325;28;20023;-73
2023/09/07 00:07:51;;;;;;;10.48;8.65;;;;;;;17.60;100.00;101662.72;5131599;28;20303;-72
2023/09/07 00:13:38;;;;;;;12.52;10.00;;;;;;;17.56;100.00;101656.97;5132685;28;20116;-72
2023/09/07 00:16:04;;;;;;;11.65;9.18;;;;;;;17.55;100.00;101660.75;5113693;28;20019;-72
2023/09/07 00:21:51;;;;;;;13.65;10.77;;;;;;;17.49;100.00;101661.72;5136057;28;20359;-73
2023/09/07 00:24:17;;;;;;;12.02;10.30;;;;;;;17.48;100.00;101656.56;5117485;28;20024;-71
2023/09/07 00:26:43;;;;;;;12.13;9.73;;;;;;;17.39;100.00;101652.59;5135160;28;20039;-73
2023/09/07 00:29:08;;;;;;;15.93;9.98;;;;;;;17.32;100.00;101656.22;5117443;28;20029;-72
2023/09/07 00:31:34;;;;;;;12.57;9.40;;;;;;;17.18;100.00;101651.34;5135077;28;20426;-72
2023/09/07 00:33:59;;;;;;;9.03;8.10;;;;;;;17.21;100.00;101650.84;5135900;28;20058;-72
2023/09/07 00:36:24;;;;;;;14.90;10.37;;;;;;;17.26;100.00;101659.88;5135127;28;20293;-72
2023/09/07 00:38:49;;;;;;;15.13;10.23;;;;;;;17.26;100.00;101649.06;5117347;28;20273;-73
2023/09/07 00:44:36;;;;;;;10.82;9.13;;;;;;;17.30;100.00;101654.81;5135887;28;20452;-72
2023/09/07 00:47:02;;;;;;;9.33;7.97;;;;;;;17.28;100.00;101655.06;5135599;28;20106;-74
2023/09/07 00:49:27;;;;;;;14.55;9.85;;;;;;;17.25;100.00;101657.44;5134593;28;20280;-72
2023/09/07 00:51:53;;;;;;;13.27;9.50;;;;;;;17.24;100.00;101651.19;5135300;28;20157;-72
2023/09/07 00:57:42;;;;;;;15.38;11.77;;;;;;;17.33;100.00;101657.03;5135670;28;20130;-73
2023/09/07 01:00:08;;;;;;;10.27;8.25;;;;;;;17.22;100.00;101658.72;5134379;27;20464;-72
2023/09/07 01:06:12;;;;;;;13.68;10.82;;;;;;;17.23;100.00;101654.97;5134668;28;20061;-73
2023/09/07 01:08:51;;;;;;;17.23;13.48;;;;;;;17.22;100.00;101658.72;5116760;28;20475;-72
2023/09/07 01:11:20;;;;;;;10.80;9.68;;;;;;;17.23;100.00;101654.13;5134355;28;20047;-72
2023/09/07 01:13:45;;;;;;;11.50;9.70;;;;;;;17.16;100.00;101650.75;5135111;28;20015;-73
2023/09/07 01:16:12;;;;;;;13.20;9.65;;;;;;;17.17;100.00;101652.41;5134999;28;20034;-72
2023/09/07 01:18:38;;;;;;;15.15;13.57;;;;;;;17.16;100.00;101653.47;5134152;28;20091;-72
2023/09/07 01:21:07;;;;;;;15.50;12.07;;;;;;;17.13;100.00;101645.81;5135007;28;20015;-72
2023/09/07 01:26:55;;;;;;;15.52;11.70;;;;;;;17.06;100.00;101645.09;5135249;28;20046;-71
2023/09/07 01:29:21;;;;;;;9.85;8.80;;;;;;;16.99;100.00;101646.06;5116011;28;20176;-71
2023/09/07 01:31:47;;;;;;;10.43;7.38;;;;;;;16.92;100.00;101637.25;5133829;27;20113;-73
2023/09/07 01:34:13;;;;;;;12.48;10.18;;;;;;;16.89;100.00;101643.16;5134672;28;20027;-71
2023/09/07 01:36:38;;;;;;;10.90;8.32;;;;;;;16.89;100.00;101643.16;5115805;28;20070;-71
2023/09/07 01:39:05;;;;;;;12.52;10.68;;;;;;;16.86;100.00;101637.41;5116380;28;20440;-72
2023/09/07 01:41:31;;;;;;;14.68;11.10;;;;;;;16.86;100.00;101638.22;5134004;28;20509;-71
2023/09/07 01:47:18;;;;;;;17.63;13.05;;;;;;;16.78;100.00;101624.25;5134619;28;20368;-73
2023/09/07 01:49:43;;;;;;;15.07;11.50;;;;;;;16.77;100.00;101634.25;5134460;28;20105;-72
2023/09/07 01:55:31;;;;;;;13.63;12.07;;;;;;;16.67;100.00;101636.69;5134441;28;20330;-72
2023/09/07 01:57:56;;;;;;;10.23;9.18;;;;;;;16.60;100.00;101633.25;5133981;28;20019;-73
2023/09/07 02:03:43;;;;;;;11.45;9.27;;;;;;;16.59;100.00;101632.44;5134538;28;20035;-73
2023/09/07 02:06:08;;;;;;;17.17;13.50;;;;;;;16.58;100.00;101629.97;5115626;28;20039;-71
2023/09/07 02:08:33;;;;;;;20.25;16.63;;;;;;;16.61;100.00;101632.19;5134319;28;20023;-72
2023/09/07 02:10:59;;;;;;;18.80;16.13;;;;;;;16.64;100.00;101629.03;5115232;28;20050;-73
2023/09/07 02:16:46;;;;;;;21.02;16.45;;;;;;;16.81;100.00;101634.59;5134560;28;20095;-73
2023/09/07 02:19:11;;;;;;;22.20;17.63;;;;;;;16.76;100.00;101623.63;5115702;28;20024;-72
2023/09/07 02:24:58;;;;;;;15.80;13.75;;;;;;;16.68;100.00;101632.94;5134179;28;20264;-71
2023/09/07 02:27:23;;;;;;;20.43;16.93;;;;;;;16.70;100.00;101625.41;5134138;28;20019;-72
2023/09/07 02:29:49;;;;;;;22.30;17.47;;;;;;;16.68;100.00;101622.94;5115136;28;20342;-71
2023/09/07 02:35:38;;;;;;;18.95;15.40;;;;;;;16.72;100.00;101632.22;5134117;28;20294;-73
2023/09/07 02:38:04;;;;;;;22.80;16.02;;;;;;;16.73;100.00;101631.16;5115530;28;20425;-73
2023/09/07 02:40:29;;;;;;;16.87;13.97;;;;;;;16.69;100.00;101629.16;5133087;28;20035;-73
2023/09/07 02:46:16;;;;;;;17.38;15.05;;;;;;;16.63;100.00;101627.38;5133868;27;20264;-72
2023/09/07 02:48:41;;;;;;;19.77;16.67;;;;;;;16.51;100.00;101618.47;5115374;28;20383;-72
2023/09/07 02:54:29;;;;;;;18.55;14.50;;;;;;;16.38;100.00;101616.81;5133654;28;20271;-73
2023/09/07 02:56:54;;;;;;;20.58;17.05;;;;;;;16.46;100.00;101626.41;5133817;28;20090;-73
2023/09/07 02:59:20;;;;;;;17.90;15.30;;;;;;;16.42;100.00;101626.91;5114765;28;20205;-72
2023/09/07 03:01:45;;;;;;;19.42;16.40;;;;;;;16.40;100.00;101620.91;5133523;27;20118;-72
2023/09/07 03:04:10;;;;;;;19.02;15.80;;;;;;;16.44;100.00;101621.25;5132482;28;20078;-72
2023/09/07 03:06:35;;;;;;;19.50;15.03;;;;;;;16.41;100.00;101616.34;5133507;28;20038;-74
2023/09/07 03:09:01;;;;;;;18.93;16.57;;;;;;;16.33;100.00;101609.41;5133399;28;20277;-73
2023/09/07 03:14:48;;;;;;;20.00;15.95;;;;;;;16.27;100.00;101623.84;5133286;28;20039;-73
2023/09/07 03:20:35;;;;;;;19.38;16.23;;;;;;;16.27;100.00;101629.25;5133704;28;20069;-73
2023/09/07 03:23:01;;;;;;;20.80;16.80;;;;;;;16.29;100.00;101629.81;5132651;28;20594;-73
2023/09/07 03:25:26;;;;;;;16.65;14.93;;;;;;;16.26;100.00;101622.19;5114625;28;20027;-72
2023/09/07 03:27:52;;;;;;;21.20;15.83;;;;;;;16.25;100.00;101620.56;5132396;28;20403;-72
2023/09/07 03:33:39;;;;;;;15.70;14.05;;;;;;;16.21;100.00;101624.78;5133290;28;20061;-73
2023/09/07 03:36:04;;;;;;;17.07;15.00;;;;;;;16.23;100.00;101625.38;5114560;28;20023;-73
2023/09/07 03:41:52;;;;;;;13.77;12.27;;;;;;;16.12;100.00;101636.94;5133217;28;20073;-72
2023/09/07 03:47:39;;;;;;;19.33;15.93;;;;;;;16.04;100.00;101634.56;5133370;28;20168;-73
2023/09/07 03:50:05;;;;;;;17.10;14.57;;;;;;;15.94;100.00;101637.84;5132268;28;20511;-73
2023/09/07 03:52:31;;;;;;;24.17;16.70;;;;;;;15.97;100.00;101631.16;5132721;28;20157;-74
2023/09/07 03:54:57;;;;;;;18.98;15.40;;;;;;;16.04;100.00;101637.28;5131917;27;20031;-72
2023/09/07 03:57:26;;;;;;;21.40;15.93;;;;;;;16.01;100.00;101637.75;5131828;28;20396;-72
2023/09/07 03:59:51;;;;;;;20.17;16.35;;;;;;;15.96;100.00;101637.63;5132636;28;20114;-74
2023/09/07 04:02:19;;;;;;;19.97;16.00;;;;;;;15.92;100.00;101631.03;5113474;28;20126;-72
2023/09/07 04:08:07;;;;;;;23.58;16.63;;;;;;;15.96;100.00;101643.84;5132062;27;20082;-73
2023/09/07 04:10:32;;;;;;;24.35;17.05;;;;;;;16.04;100.00;101634.56;5132855;28;20064;-72
2023/09/07 04:12:58;;;;;;;19.55;16.27;;;;;;;15.99;100.00;101623.66;5132378;28;20031;-72
2023/09/07 04:18:45;;;;;;;18.73;15.35;;;;;;;15.99;100.00;101627.19;5132414;28;20282;-73
2023/09/07 04:21:11;;;;;;;19.45;14.60;;;;;;;15.85;100.00;101622.19;5131540;28;20126;-73
2023/09/07 04:23:36;;;;;;;18.25;15.75;;;;;;;15.82;100.00;101626.19;5132369;28;20023;-72
2023/09/07 04:26:08;;;;;;;19.63;15.07;;;;;;;15.84;100.00;101632.16;5131486;28;20088;-72
2023/09/07 04:28:34;;;;;;;16.98;15.18;;;;;;;15.83;100.00;101629.69;5114015;28;20027;-72
2023/09/07 04:30:59;;;;;;;19.65;15.07;;;;;;;15.76;100.00;101633.31;5112989;28;20608;-72
2023/09/07 04:36:46;;;;;;;14.98;12.85;;;;;;;15.60;100.00;101636.63;5131761;27;20108;-71
2023/09/07 04:42:33;;;;;;;15.68;14.02;;;;;;;15.55;100.00;101641.84;5132615;28;20038;-71
2023/09/07 04:48:20;;;;;;;20.27;14.90;;;;;;;15.39;100.00;101631.72;5132042;28;20058;-72
2023/09/07 04:54:07;;;;;;;20.88;14.68;;;;;;;15.34;100.00;101635.09;5131942;28;20272;-74
2023/09/07 04:59:54;;;;;;;18.77;14.77;;;;;;;15.26;100.00;101632.69;5132179;28;20092;-72
2023/09/07 05:05:43;;;;;;;20.38;15.32;;;;;;;15.20;100.00;101649.75;5132309;28;20268;-70
2023/09/07 05:11:30;;;;;;;11.27;10.07;;;;;;;15.06;100.00;101637.50;5135510;28;20126;-71
2023/09/07 05:13:55;;;;;;;14.80;11.63;;;;;;;15.00;100.00;101636.50;5134419;28;20122;-70
2023/09/07 05:19:42;;;;;;;19.15;13.30;;;;;;;15.41;100.00;101653.88;5135350;28;20313;-72
2023/09/07 05:25:29;;;;;;;18.27;14.35;;;;;;;16.35;100.00;101661.28;5135081;28;20342;-72
2023/09/07 05:31:15;;;;;;;16.90;12.80;;;;;;;17.44;100.00;101656.22;5134237;28;20287;-70
2023/09/07 05:37:02;;;;;;;14.95;12.68;;;;;;;18.56;100.00;101663.69;5135099;28;20079;-73
2023/09/07 05:42:49;;;;;;;12.60;11.20;;;;;;;19.66;100.00;101670.09;5135396;28;20038;-73
2023/09/07 05:48:37;;;;;;;13.95;11.45;;;;;;;20.63;100.00;101674.59;5134421;27;20057;-72
2023/09/07 05:54:24;;;;;;;11.77;10.43;;;;;;;21.54;100.00;101677.84;5134691;28;20046;-77
2023/09/07 06:00:11;;;;;;;12.38;10.23;;;;;;;22.32;100.00;101683.22;5135464;27;20126;-75
2023/09/07 06:05:58;;;;;;;11.00;8.82;;;;;;;23.45;100.00;101687.41;5134850;28;20046;-77
2023/09/07 06:08:23;;;;;;;11.90;9.20;;;;;;;23.90;99.66;101691.00;5133810;28;20047;-77
2023/09/07 06:10:49;;;;;;;12.85;11.50;;;;;;;24.30;96.24;101698.97;5115828;28;20351;-75
2023/09/07 06:16:35;;;;;;;14.05;12.65;;;;;;;25.34;90.91;101698.50;5134317;28;20454;-74
2023/09/07 06:22:22;;;;;;;15.95;12.95;;;;;;;26.25;85.41;101710.16;5134233;27;20517;-75
2023/09/07 06:28:09;;;;;;;17.08;14.10;;;;;;;27.28;79.05;101721.84;5134133;28;20275;-74
2023/09/07 06:33:56;;;;;;;17.10;13.38;;;;;;;28.19;73.16;101723.75;5134187;27;20076;-76
2023/09/07 06:39:43;;;;;;;20.45;14.93;;;;;;;28.89;71.61;101725.88;5134020;28;20046;-74
2023/09/07 06:45:30;;;;;;;15.75;14.15;;;;;;;29.78;65.69;101720.06;5134122;28;20287;-74
2023/09/07 06:51:16;;;;;;;15.80;14.15;;;;;;;30.55;61.11;101720.38;5133730;28;20783;-77
2023/09/07 07:00:25;;;;;;;16.17;13.45;;;;;;;31.27;57.92;101723.13;5133778;27;20042;-76
2023/09/07 07:06:13;;;;;;;14.95;13.07;;;;;;;31.97;56.62;101729.88;5133965;28;20054;-77
2023/09/07 07:08:38;;;;;;;15.35;13.75;;;;;;;31.98;54.61;101734.25;5132669;28;20079;-77
2023/09/07 07:11:03;;;;;;;18.73;12.43;;;;;;;32.00;52.93;101753.28;5114974;28;20051;-75
2023/09/07 07:13:29;;;;;;;15.82;12.80;;;;;;;31.79;52.65;101744.16;5132648;28;20073;-76
2023/09/07 07:19:16;;;;;;;19.57;13.10;;;;;;;31.36;56.00;101736.91;5132870;28;20104;-78
2023/09/07 07:25:05;;;;;;;15.93;13.63;;;;;;;31.95;52.88;101737.69;5133279;28;20411;-77
2023/09/07 07:30:53;;;;;;;17.00;12.70;;;;;;;32.32;50.37;101735.94;5133397;27;20100;-78
2023/09/07 07:36:40;;;;;;;16.38;13.77;;;;;;;31.15;53.76;101731.28;5133166;27;20062;-76
2023/09/07 07:42:27;;;;;;;18.15;13.63;;;;;;;32.31;50.03;101739.84;5132844;28;20826;-76
2023/09/07 07:48:14;;;;;;;17.50;14.05;;;;;;;33.23;48.10;101742.28;5132569;28;20092;-74
2023/09/07 07:54:00;;;;;;;17.27;12.07;;;;;;;34.26;44.75;101738.34;5132830;28;20407;-75
2023/09/07 07:59:47;;;;;;;14.88;11.82;;;;;;;33.11;46.97;101735.94;5132662;28;20074;-75
2023/09/07 08:05:35;;;;;;;14.38;12.38;;;;;;;31.14;51.02;101718.59;5133185;28;20042;-77
2023/09/07 08:11:22;;;;;;;15.65;12.52;;;;;;;31.83;50.10;101728.53;5132815;28;20491;-75
2023/09/07 08:17:09;;;;;;;15.48;10.73;;;;;;;32.83;48.59;101713.63;5132522;27;20119;-75
2023/09/07 08:22:55;;;;;;;12.52;10.68;;;;;;;33.63;45.48;101710.28;5132478;28;20322;-74
2023/09/07 08:28:46;;;;;;;13.20;9.70;;;;;;;34.49;41.94;101711.66;5132433;28;20069;-75
2023/09/07 08:34:35;;;;;;;13.32;9.55;;;;;;;34.11;42.32;101699.06;5132600;28;20068;-76
2023/09/07 08:40:23;;;;;;;14.07;9.10;;;;;;;34.45;41.33;101700.44;5132557;28;20037;-78
2023/09/07 08:46:23;;;;;;;14.98;9.38;;;;;;;34.57;42.15;101694.00;5135591;27;20033;-76
2023/09/07 08:52:10;;;;;;;11.30;8.05;;;;;;;35.02;39.85;101703.91;5135646;28;20509;-78
2023/09/07 08:57:57;;;;;;;10.27;7.40;;;;;;;34.72;39.96;101697.97;5134811;28;20046;-75
2023/09/07 09:03:45;;;;;;;9.90;7.60;;;;;;;35.12;39.97;101685.88;5135546;28;20695;-76
2023/09/07 09:09:32;;;;;;;9.97;7.20;;;;;;;33.80;43.81;101676.69;5135677;28;20410;-75
2023/09/07 09:15:21;;;;;;;12.07;8.15;;;;;;;31.04;49.14;101675.56;5135322;28;20046;-75
2023/09/07 09:24:34;;;;;;;11.48;7.30;;;;;;;29.96;55.48;101689.72;5135537;28;20053;-74
2023/09/07 09:30:21;;;;;;;9.68;6.50;;;;;;;29.49;57.20;101675.72;5135279;28;20045;-75
2023/09/07 09:36:08;;;;;;;9.73;6.53;;;;;;;28.59;60.29;101664.16;5134335;28;20058;-75
2023/09/07 09:41:56;;;;;;;9.95;6.82;;;;;;;29.42;57.50;101667.09;5134926;28;20043;-74
2023/09/07 09:47:43;;;;;;;8.63;6.80;;;;;;;28.97;58.68;101659.03;5134955;28;20399;-74
2023/09/07 09:53:30;;;;;;;10.60;6.38;;;;;;;29.66;56.89;101655.66;5133505;27;20347;-74
2023/09/07 09:59:18;;;;;;;8.65;6.57;;;;;;;30.52;55.85;101655.59;5135202;28;20100;-78
2023/09/07 10:05:07;;;;;;;10.57;6.47;;;;;;;30.65;54.44;101656.53;5134588;28;20038;-78
2023/09/07 10:10:54;;;;;;;6.70;5.85;;;;;;;30.66;51.71;101652.66;5134656;28;20062;-76
2023/09/07 10:16:46;;;;;;;8.15;6.25;;;;;;;31.76;47.96;101650.78;5134431;27;20065;-81
2023/09/07 10:22:33;;;;;;;6.40;5.43;;;;;;;31.59;48.71;101651.69;5134541;28;20088;-75
2023/09/07 10:28:24;;;;;;;6.57;5.63;;;;;;;29.71;56.52;101644.47;5134624;28;20042;-76
2023/09/07 10:34:12;;;;;;;7.43;5.97;;;;;;;28.79;60.99;101644.34;5134301;27;20070;-75
2023/09/07 10:39:59;;;;;;;13.13;6.43;;;;;;;28.34;63.07;101627.13;5134107;28;20410;-77
2023/09/07 10:45:46;;;;;;;7.78;5.88;;;;;;;28.27;67.04;101624.00;5133796;28;20267;-76
2023/09/07 10:51:33;;;;;;;8.00;6.15;;;;;;;28.33;66.72;101629.03;5133828;28;20095;-75
2023/09/07 10:57:19;;;;;;;8.02;5.68;;;;;;;28.26;63.21;101611.34;5133830;28;20291;-76
2023/09/07 11:03:10;;;;;;;9.77;5.63;;;;;;;28.82;60.11;101612.59;5133496;28;20280;-75
2023/09/07 11:09:04;;;;;;;7.30;5.80;;;;;;;28.84;64.65;101608.41;5133724;28;20407;-76
2023/09/07 11:14:53;;;;;;;8.30;5.57;;;;;;;28.88;59.31;101611.34;5133533;28;20455;-77
2023/09/07 11:20:39;;;;;;;5.85;5.10;;;;;;;28.74;60.06;101613.38;5133611;28;20092;-75
2023/09/07 11:26:26;;;;;;;7.30;5.47;;;;;;;28.76;62.41;101595.44;5133306;27;20288;-76
2023/09/07 11:32:14;;;;;;;5.97;5.28;;;;;;;30.63;53.15;101609.13;5133136;28;20327;-77
2023/09/07 11:38:06;;;;;;;7.00;5.40;;;;;;;30.27;53.06;101604.84;5133416;28;20058;-76
2023/09/07 11:43:52;;;;;;;6.40;5.43;;;;;;;29.68;55.58;101599.03;5133359;28;20042;-77
2023/09/07 11:49:40;;;;;;;6.57;5.07;;;;;;;29.06;59.47;101602.03;5133086;28;20322;-76
2023/09/07 11:55:27;;;;;;;7.72;5.47;;;;;;;29.08;60.40;101588.75;5133105;28;20091;-78
2023/09/07 12:01:16;;;;;;;6.32;5.45;;;;;;;29.22;59.96;101585.88;5132771;27;20042;-78
2023/09/07 12:07:04;;;;;;;6.82;5.63;;;;;;;29.20;58.30;101577.91;5132183;27;20498;-78
2023/09/07 12:12:50;;;;;;;5.50;4.90;;;;;;;29.14;58.27;101581.13;5132728;28;20035;-77
2023/09/07 12:18:37;;;;;;;8.10;5.20;;;;;;;29.21;59.96;101571.28;5132587;28;20041;-77
2023/09/07 12:24:24;;;;;;;9.30;5.40;;;;;;;29.36;59.64;101564.47;5132414;28;20272;-80
2023/09/07 12:26:50;;;;;;;7.47;5.38;;;;;;;29.27;57.50;101571.94;5131521;28;20407;-78
2023/09/07 12:32:36;;;;;;;7.30;5.53;;;;;;;30.66;56.08;101564.31;5132275;28;20080;-79
2023/09/07 12:38:28;;;;;;;7.05;5.20;;;;;;;33.33;45.76;101565.53;5132135;28;20042;-77
2023/09/07 12:44:15;;;;;;;9.02;5.68;;;;;;;35.47;43.13;101564.28;5132416;28;20043;-78
2023/09/07 12:50:02;;;;;;;9.32;4.88;;;;;;;34.92;40.36;101565.44;5132435;28;20042;-80
2023/09/07 12:55:50;;;;;;;8.73;5.18;;;;;;;34.12;43.70;101550.75;5132282;28;20091;-78
2023/09/07 13:04:59;;;;;;;7.47;6.05;;;;;;;35.52;39.74;101547.28;5132228;28;20130;-78
2023/09/07 13:10:46;;;;;;;7.30;5.90;;;;;;;34.03;44.41;101546.50;5131848;28;20046;-78
2023/09/07 13:16:34;;;;;;;8.38;5.45;;;;;;;32.80;46.73;101523.91;5131208;28;20280;-78
2023/09/07 13:22:21;;;;;;;8.85;5.68;;;;;;;32.40;47.58;101521.03;5131663;28;20418;-78
2023/09/07 13:28:08;;;;;;;8.93;5.75;;;;;;;33.34;44.50;101511.69;5133934;27;20042;-79
2023/09/07 13:33:55;;;;;;;6.20;5.60;;;;;;;33.17;43.39;101519.09;5135103;28;20054;-78
2023/09/07 13:39:42;;;;;;;7.03;5.75;;;;;;;31.78;49.04;101507.38;5135115;28;20311;-80
2023/09/07 13:45:29;;;;;;;7.78;5.22;;;;;;;30.57;52.84;101511.03;5134781;28;20775;-80
2023/09/07 13:51:16;;;;;;;7.28;5.60;;;;;;;30.07;52.62;101503.44;5134888;28;20050;-77
2023/09/07 13:57:03;;;;;;;6.15;5.35;;;;;;;29.64;55.75;101503.53;5134755;27;20111;-77
2023/09/07 14:02:50;;;;;;;7.05;6.03;;;;;;;29.41;55.64;101500.91;5134902;28;20057;-78
2023/09/07 14:08:37;;;;;;;7.57;5.47;;;;;;;29.19;58.42;101490.06;5134918;27;20088;-75
2023/09/07 14:14:24;;;;;;;7.05;5.57;;;;;;;29.07;62.87;101485.19;5134257;28;20463;-79
2023/09/07 14:20:11;;;;;;;5.85;5.07;;;;;;;29.12;61.51;101486.97;5134260;28;20087;-81
2023/09/07 14:25:58;;;;;;;7.38;5.70;;;;;;;29.05;59.64;101487.47;5134484;28;20104;-75
2023/09/07 14:31:46;;;;;;;8.50;5.70;;;;;;;29.08;64.95;101480.50;5134121;28;20050;-76
2023/09/07 14:37:32;;;;;;;7.65;5.50;;;;;;;29.05;63.43;101473.69;5133766;28;20291;-76
2023/09/07 14:43:20;;;;;;;7.80;5.15;;;;;;;29.00;60.81;101487.63;5133733;28;20311;-75
2023/09/07 14:49:06;;;;;;;7.00;5.97;;;;;;;28.93;60.71;101468.03;5134117;28;20041;-76
2023/09/07 14:54:53;;;;;;;6.07;5.35;;;;;;;28.92;64.42;101466.41;5133671;28;20074;-76
2023/09/07 15:00:59;;;;;;;8.85;5.35;;;;;;;28.95;61.32;101471.28;5133724;27;20307;-78
2023/09/07 15:06:46;;;;;;;7.00;5.20;;;;;;;28.91;63.28;101473.88;5133428;27;20275;-75
2023/09/07 15:12:33;;;;;;;7.38;5.30;;;;;;;28.91;62.18;101468.34;5133145;28;20299;-76
2023/09/07 15:18:20;;;;;;;7.82;5.53;;;;;;;28.94;60.36;101481.47;5133259;27;20122;-73
2023/09/07 15:24:07;;;;;;;7.82;5.40;;;;;;;28.90;60.94;101460.38;5133024;28;20555;-76
2023/09/07 15:29:53;;;;;;;8.50;5.28;;;;;;;28.81;64.04;101465.88;5133807;28;20418;-75
2023/09/07 15:35:40;;;;;;;7.60;5.28;;;;;;;28.72;59.22;101455.97;5133053;28;20062;-73
2023/09/07 15:41:27;;;;;;;5.65;5.05;;;;;;;28.79;61.05;101459.06;5132309;28;20050;-76
2023/09/07 15:47:14;;;;;;;8.25;5.40;;;;;;;28.77;59.73;101442.06;5132487;28;20275;-76
2023/09/07 15:53:01;;;;;;;9.15;5.50;;;;;;;28.66;60.28;101444.31;5132257;28;20087;-74
2023/09/07 15:58:49;;;;;;;7.75;5.78;;;;;;;28.58;62.17;101431.31;5132883;28;20049;-76
2023/09/07 16:04:36;;;;;;;9.63;5.50;;;;;;;28.59;59.24;101427.44;5132528;28;20145;-75
2023/09/07 16:10:23;;;;;;;8.48;5.40;;;;;;;28.45;61.87;101427.59;5132594;28;20338;-75
2023/09/07 16:16:10;;;;;;;11.10;5.90;;;;;;;28.35;61.14;101420.47;5132643;28;20054;-75
2023/09/07 16:21:58;;;;;;;7.47;5.47;;;;;;;28.35;60.77;101427.91;5132883;28;20516;-74
2023/09/07 16:27:46;;;;;;;7.10;5.30;;;;;;;28.23;64.79;101416.66;5132591;28;20046;-74
2023/09/07 16:33:33;;;;;;;9.95;6.35;;;;;;;28.23;63.34;101424.91;5132273;28;20038;-74
2023/09/07 16:39:20;;;;;;;7.40;6.03;;;;;;;28.13;64.82;101415.00;5132246;27;20124;-75
2023/09/07 16:45:08;;;;;;;9.75;6.32;;;;;;;28.07;66.75;101410.78;5131909;28;20778;-75
2023/09/07 16:50:55;;;;;;;9.07;5.63;;;;;;;28.06;70.11;101412.72;5127780;28;20081;-76
2023/09/07 16:56:42;;;;;;;7.38;5.70;;;;;;;28.06;70.46;101409.16;5131809;28;20038;-77
2023/09/07 17:02:29;;;;;;;9.30;5.90;;;;;;;27.96;73.51;101415.75;5132018;27;20147;-78
2023/09/07 17:08:17;;;;;;;9.35;6.35;;;;;;;27.88;72.10;101421.22;5135520;28;20169;-78
2023/09/07 17:14:04;;;;;;;8.80;6.60;;;;;;;27.65;72.93;101414.94;5135800;28;20082;-76
2023/09/07 17:19:51;;;;;;;8.18;6.90;;;;;;;27.52;72.93;101426.81;5135445;28;20038;-76
2023/09/07 17:25:38;;;;;;;11.48;7.30;;;;;;;27.31;76.43;101419.06;5135330;28;20302;-75
2023/09/07 17:31:26;;;;;;;11.48;7.00;;;;;;;27.20;77.99;101419.66;5135023;28;20057;-77
2023/09/07 17:37:13;;;;;;;11.00;6.35;;;;;;;26.98;81.75;101412.16;5134992;28;20065;-75
2023/09/07 17:43:00;;;;;;;8.65;6.50;;;;;;;26.72;84.36;101417.44;5135010;28;20637;-76
2023/09/07 17:48:47;;;;;;;10.95;6.75;;;;;;;26.50;91.29;101418.19;5135132;27;20046;-75
2023/09/07 17:54:34;;;;;;;9.75;7.32;;;;;;;26.10;94.40;101409.66;5134806;28;20054;-77
2023/09/07 18:00:27;;;;;;;11.45;8.23;;;;;;;25.73;96.74;101412.53;5134617;27;20087;-75
2023/09/07 18:06:15;;;;;;;12.15;7.78;;;;;;;25.45;98.85;101414.41;5134350;28;20160;-77
2023/09/07 18:12:02;;;;;;;15.27;7.78;;;;;;;24.95;100.00;101409.41;5134305;28;20395;-79
2023/09/07 18:17:49;;;;;;;12.18;7.60;;;;;;;24.66;100.00;101416.94;5134516;28;20042;-77
2023/09/07 18:23:36;;;;;;;21.95;9.48;;;;;;;24.35;100.00;101420.06;5134027;28;20068;-77
2023/09/07 18:29:23;;;;;;;13.13;8.10;;;;;;;23.95;100.00;101418.56;5134198;27;20144;-77
2023/09/07 18:35:09;;;;;;;12.85;8.10;;;;;;;23.72;100.00;101420.19;5133848;28;20272;-75
2023/09/07 18:41:00;;;;;;;14.95;8.50;;;;;;;23.52;100.00;101425.78;5134025;27;20049;-77
2023/09/07 18:46:47;;;;;;;11.32;7.43;;;;;;;23.22;100.00;101439.69;5133807;28;20413;-75
2023/09/07 18:52:34;;;;;;;9.10;7.22;;;;;;;23.08;100.00;101439.47;5133926;28;20104;-75
2023/09/07 18:58:22;;;;;;;8.55;7.30;;;;;;;22.80;100.00;101435.53;5133699;28;20042;-74
2023/09/07 19:04:09;;;;;;;11.30;7.63;;;;;;;22.64;100.00;101439.44;5133590;28;20045;-74
2023/09/07 19:09:56;;;;;;;8.32;7.47;;;;;;;22.36;100.00;101444.47;5133705;27;20084;-78
2023/09/07 19:15:44;;;;;;;10.88;8.02;;;;;;;22.16;100.00;101431.72;5133094;28;20046;-76
2023/09/07 19:21:32;;;;;;;10.25;8.63;;;;;;;22.21;100.00;101436.31;5133339;28;20087;-74
2023/09/07 19:27:20;;;;;;;12.75;8.77;;;;;;;22.17;100.00;101435.25;5132835;28;20096;-75
2023/09/07 19:33:07;;;;;;;15.60;9.35;;;;;;;22.06;100.00;101450.00;5133139;28;20505;-78
2023/09/07 19:38:57;;;;;;;13.63;9.70;;;;;;;21.93;100.00;101443.97;5132661;28;20472;-75
2023/09/07 19:44:44;;;;;;;14.23;9.32;;;;;;;21.84;100.00;101440.19;5133054;28;20411;-76
2023/09/07 19:50:31;;;;;;;13.90;9.88;;;;;;;21.77;100.00;101438.84;5132783;27;20620;-76
2023/09/07 19:56:29;;;;;;;12.05;10.43;;;;;;;21.65;100.00;101450.00;5132705;28;20087;-74
2023/09/07 20:02:16;;;;;;;16.35;10.90;;;;;;;21.49;100.00;101440.22;5133083;27;20107;-75
2023/09/07 20:08:03;;;;;;;14.45;11.68;;;;;;;21.42;100.00;101440.50;5132208;28;20276;-75
2023/09/07 20:17:11;;;;;;;10.88;9.73;;;;;;;21.23;100.00;101439.38;5132555;28;20046;-75
2023/09/07 20:22:59;;;;;;;12.50;10.85;;;;;;;21.10;100.00;101445.31;5132513;28;20276;-75
2023/09/07 20:28:48;;;;;;;12.15;10.77;;;;;;;21.02;100.00;101442.03;5132221;28;20543;-76
2023/09/07 20:34:36;;;;;;;15.93;10.02;;;;;;;21.02;100.00;101450.19;5132511;28;20050;-74
2023/09/07 20:40:23;;;;;;;11.30;9.40;;;;;;;20.93;100.00;101442.84;5136000;28;20140;-75
2023/09/07 20:46:10;;;;;;;11.52;10.32;;;;;;;20.81;100.00;101428.66;5135919;28;20049;-76
2023/09/07 20:51:58;;;;;;;13.48;9.77;;;;;;;20.62;100.00;101429.16;5135781;28;20096;-75
2023/09/07 20:57:48;;;;;;;13.65;10.50;;;;;;;20.38;100.00;101434.19;5135375;28;20441;-75
2023/09/07 21:03:34;;;;;;;15.63;10.23;;;;;;;20.18;100.00;101438.69;5135661;28;20122;-75
2023/09/07 21:09:22;;;;;;;12.77;10.38;;;;;;;20.09;100.00;101438.38;5135151;28;20046;-76
2023/09/07 21:15:13;;;;;;;15.40;13.13;;;;;;;20.03;100.00;101436.72;5135181;28;20119;-75
2023/09/07 21:21:00;;;;;;;14.73;11.43;;;;;;;19.84;100.00;101443.66;5135488;28;20138;-76
2023/09/07 21:26:48;;;;;;;13.65;11.93;;;;;;;19.66;100.00;101440.28;5135156;28;20157;-75
2023/09/07 21:32:35;;;;;;;13.85;11.45;;;;;;;19.43;100.00;101433.28;5135118;28;20046;-73
2023/09/07 21:38:22;;;;;;;12.50;10.98;;;;;;;19.47;100.00;101447.13;5134996;27;20287;-76
2023/09/07 21:44:09;;;;;;;12.15;10.88;;;;;;;19.42;100.00;101447.91;5134772;28;20272;-78
2023/09/07 21:49:56;;;;;;;17.30;11.60;;;;;;;19.37;100.00;101449.75;5134772;27;20682;-80
2023/09/07 21:55:43;;;;;;;13.23;10.57;;;;;;;19.19;100.00;101445.53;5134654;28;20088;-79
2023/09/07 22:01:30;;;;;;;12.90;11.57;;;;;;;19.03;100.00;101443.72;5134724;27;20050;-79
2023/09/07 22:07:17;;;;;;;12.10;10.75;;;;;;;18.97;100.00;101437.44;5134821;28;20094;-80
2023/09/07 22:13:04;;;;;;;15.05;10.75;;;;;;;19.06;100.00;101445.91;5134492;28;20042;-79
2023/09/07 22:18:51;;;;;;;14.07;11.27;;;;;;;18.93;100.00;101430.06;5134103;27;20886;-81
2023/09/07 22:24:38;;;;;;;14.40;10.25;;;;;;;19.03;100.00;101438.31;5134262;28;20073;-80
2023/09/07 22:27:06;;;;;;;17.42;11.27;;;;;;;19.07;100.00;101426.69;5115427;28;20062;-80
2023/09/07 22:29:33;;;;;;;13.05;10.15;;;;;;;19.11;100.00;101437.88;5133165;28;20112;-80
2023/09/07 22:35:20;;;;;;;18.08;10.82;;;;;;;19.19;100.00;101434.69;5133169;28;20092;-79
2023/09/07 22:41:07;;;;;;;16.40;9.63;;;;;;;19.24;100.00;101439.34;5133677;28;20275;-79
2023/09/07 22:43:32;;;;;;;13.13;9.00;;;;;;;19.23;100.00;101433.09;5115181;28;20027;-80